Tiempo atmosférico en la estación meteorológica de Castejon De Valdejasa, Zaragoza (442 m.)



Fecha
DESCASC
Temp. máxima en grados centígrados (hora)
DESCASC
Temp. mínima en grados centígrados (hora)
DESCASC
Temp. media en grados centígrados
DESCASC
Racha de viento máxima en m/sg (hora)
DESCASC
Velocidad máxima media en intervalos de 10 minutos(hora)
DESCASC
Precipitaciones diarias en mm
DESCASC
Precipitaciones de 00:00 a 06:00 en mm
DESCASC
Precipitaciones de 06:00 a 12:00 en mm
DESCASC
Precipitaciones de 12:00 a 18:00 en mm
DESCASC
Precipitaciones de 18:00 a 24:00 en mm
DESCASC
22-01-2020 6.7 (15:20) 2.1 (06:30) 4.4 19.44 (00:50) 11.39 (00:20) 2.8 2.8 0 0 0
21-01-2020 3.6 (23:59) 0.1 (01:40) 1.8 6.67 (09:10) 4.17 (01:10) 0.8 0 0.4 0 0.4
20-01-2020 3.8 (15:20) -2.3 (06:20) 0.8 9.72 (15:30) 6.39 (15:50) 0 0 0 0 0
19-01-2020 7.3 (15:50) -0.3 (00:00) 3.5 13.61 (16:30) 8.61 (16:10) 0 0 0 0 0
18-01-2020 10.5 (14:20) 0.8 (00:00) 5.7 10.56 (21:00) 7.78 (21:40) 1.6 0 0 0 1.6
17-01-2020 11.5 (13:10) 2.2 (00:00) 6.9 11.11 (13:50) 6.11 (11:30) 0.2 0 0 0.2 0
16-01-2020 13.8 (14:20) 4.8 (00:00) 9.3 9.44 (12:00) 7.22 (12:10) 0 0 0 0 0
15-01-2020 12.8 (16:10) 2.8 (00:00) 7.8 7.78 (14:30) 5.28 (14:30) 0 0 0 0 0
14-01-2020 10.7 (16:30) -5.6 (-00:0) 2.5 6.67 (17:50) 4.72 (21:30) 0 0 0 0 0
13-01-2020 5.3 (15:10) -2.9 (-00:0) 1.2 6.11 (22:10) 4.72 (20:50) 0 0 0 0 0
12-01-2020 8.4 (16:30) -0.3 (09:00) 4 -- (--) -- (--) 0 0 0 0 0
11-01-2020 9.3 (16:00) 1.4 (00:00) 5.4 9.72 (14:00) 6.11 (14:00) 0 0 0 0 0
10-01-2020 9.3 (15:20) 2.2 (00:00) 5.8 14.44 (13:30) 8.06 (12:30) 0 0 0 0 0
09-01-2020 9 (15:40) -0.8 (-00:0) 4.1 9.17 (10:40) 6.67 (10:40) 0 0 0 0 0
08-01-2020 8.7 (15:00) -0.4 (00:00) 4.1 6.67 (14:50) 4.72 (15:00) 0 0 0 0 0
07-01-2020 5.7 (17:00) -1.6 (-00:0) 2 -- (--) -- (--) 0.2 0 0.2 0 0
06-01-2020 4.1 (00:20) -2.9 (-00:0) 0.6 5.83 (00:20) 5 (03:40) 0 0 0 0 0
05-01-2020 10.1 (16:20) 2.1 (00:00) 6.1 6.11 (12:30) 4.44 (12:40) 0 0 0 0 0
04-01-2020 10.8 (14:10) 3.3 (00:00) 7.1 13.33 (15:00) 8.61 (14:00) 0 0 0 0 0
03-01-2020 8.4 (21:40) -1.8 (-00:0) 3.3 10 (20:50) 6.39 (21:40) 0 0 0 0 0
02-01-2020 1.2 (14:40) -2.9 (-00:0) -0.9 5.28 (23:00) 3.61 (23:00) 0 0 0 0 0
01-01-2020 1.8 (15:20) -1.2 (-00:0) 0.3 4.17 (05:00) 3.06 (05:00) 0.2 0 0.2 0 0
31-12-2019 1.8 (13:00) -0.4 (00:00) 0.7 3.89 (17:20) 2.78 (13:50) 0.2 0.2 0 0 0
30-12-2019 -- (--) -- (--) -- -- (--) -- (--) -- 0.2 0 -- 0
29-12-2019 1.8 (01:50) -4 (-00:0) -1.1 4.17 (15:30) 3.06 (14:10) 0 0 0 0 0
28-12-2019 8.2 (16:50) 1.1 (00:00) 4.6 4.44 (14:00) 3.61 (21:30) 0 0 0 0 0
27-12-2019 10 (16:10) 1.1 (00:00) 5.6 6.67 (12:30) 5 (12:20) 0 0 0 0 0
26-12-2019 13 (14:00) 4.6 (00:00) 8.8 15.56 (13:30) 10 (13:00) 0 0 0 0 0
25-12-2019 15.3 (14:40) 6.5 (00:00) 10.9 4.17 (15:20) 3.61 (15:20) 0 0 0 0 0

Gráficas

Temp. máximas Temp. mínimas Temp. medias Precipitaciones Rachas de viento máximas Velocidades máximas media en intervalos de 10 minutos

Datos horarios

Fecha y hora oficial Temperatura (ºC) Velocidad del viento (km/h) Dirección del viento Racha (km/h) Dirección de racha Precipitación (mm) Presión (hPa) Tendencia (hPa) Humedad (%)
2020-01-23 23:00:00 5.2 23 Este 35 Este 0 -- -- 93
2020-01-23 22:00:00 5.1 28 Este 37 Este 0 -- -- 92
2020-01-23 21:00:00 4.8 23 Este 30 Este 0 -- -- 93
2020-01-23 20:00:00 4.8 19 Este 38 Este 0 -- -- 93
2020-01-23 19:00:00 5.5 26 Este 37 Este 0 -- -- 93
2020-01-23 18:00:00 5.7 19 Este 33 Este 0 -- -- 95
2020-01-23 17:00:00 5.7 26 Este 35 Este 0 -- -- 95
2020-01-23 16:00:00 6 20 Este 28 Este 0 -- -- 95
2020-01-23 15:00:00 6.2 14 Este 20 Este 0 -- -- 95
2020-01-23 14:00:00 5.9 10 Este 17 Este 0 -- -- 97
2020-01-23 13:00:00 5.6 12 Este 18 Este 0 -- -- 97
2020-01-23 12:00:00 5.8 4 Este 7 Este 0 -- -- 98
2020-01-23 11:00:00 5 4 Este 5 Este 0 -- -- 98
2020-01-23 10:00:00 4.5 2 Noroeste 5 Noroeste 0 -- -- 98
2020-01-23 09:00:00 -- -- -- -- -- -- -- -- --
2020-01-23 08:00:00 4.1 3 Noroeste 10 Oeste 0 -- -- 97
2020-01-23 07:00:00 4.2 3 Oeste 8 Oeste 0 -- -- 96
2020-01-23 06:00:00 4.3 0 Calma 8 Este 0 -- -- 95
2020-01-23 05:00:00 4.4 6 Norte 9 Nordeste 0 -- -- 95
2020-01-23 04:00:00 4.3 4 Este 16 Este 0 -- -- 95
2020-01-23 03:00:00 4.3 10 Este 17 Este 0 -- -- 95
2020-01-23 02:00:00 4.6 13 Este 22 Este 0 -- -- 95
2020-01-23 01:00:00 5.2 10 Este 18 Este 0 -- -- 96
2020-01-23 00:00:00 5.3 9 Este 15 Nordeste 0 -- -- 95
2020-01-22 23:00:00 5.5 9 Este 13 Este 0 -- -- 95
2020-01-22 22:00:00 5.7 0 Calma 6 Nordeste 0 -- -- 95
2020-01-22 21:00:00 5.9 4 Nordeste 8 Este 0 -- -- 94
2020-01-22 20:00:00 6.2 8 Nordeste 10 Nordeste 0 -- -- 94
2020-01-22 19:00:00 6.1 0 Calma 3 Noroeste 0 -- -- 93
2020-01-22 18:00:00 6.3 0 Calma 5 Oeste 0 -- -- 92
2020-01-22 17:00:00 6.2 3 Oeste 12 Sudoeste 0 -- -- 92
2020-01-22 16:00:00 6.5 9 Oeste 15 Oeste 0 -- -- 92
2020-01-22 15:00:00 6.4 8 Oeste 14 Oeste 0 -- -- 93
2020-01-22 14:00:00 5.3 8 Oeste 15 Oeste 0 -- -- 94
2020-01-22 13:00:00 5.1 11 Oeste 14 Oeste 0 -- -- 94
2020-01-22 12:00:00 4.7 9 Oeste 12 Oeste 0 -- -- 95
2020-01-22 11:00:00 3.8 3 Sudeste 6 Este 0 -- -- 98
2020-01-22 10:00:00 2.8 0 Calma 4 Oeste 0 -- -- 98
2020-01-22 09:00:00 2.3 0 Calma 3 Este 0 -- -- 98
2020-01-22 08:00:00 2.3 0 Calma 2 Sudeste 0 -- -- 98
2020-01-22 07:00:00 2.1 2 Noroeste 10 Oeste 0 -- -- 98
2020-01-22 06:00:00 2.3 8 Oeste 16 Oeste 0 -- -- 97
2020-01-22 05:00:00 4.5 3 Noroeste 25 Este 0 -- -- 93
2020-01-22 04:00:00 5.2 18 Este 47 Este 0 -- -- 91
2020-01-22 03:00:00 5.7 31 Este 60 Nordeste 0 -- -- 93
2020-01-22 02:00:00 6 39 Este 61 Nordeste 0 -- -- 92
2020-01-22 01:00:00 5.8 30 Este 70 Este 2.8 -- -- 94
2020-01-22 00:00:00 3.6 8 Este 21 Este 0.4 -- -- 97
2020-01-21 23:00:00 2.9 4 Noroeste 11 Noroeste 0 -- -- 95
2020-01-21 22:00:00 3 3 Oeste 14 Oeste 0 -- -- 96
2020-01-21 21:00:00 2.8 4 Oeste 9 Oeste 0 -- -- 96
2020-01-21 20:00:00 3.1 7 Noroeste 14 Noroeste 0 -- -- 97
2020-01-21 19:00:00 2.8 10 Noroeste 13 Noroeste 0 -- -- 97
2020-01-21 18:00:00 2.6 0 Calma 7 Oeste 0 -- -- 97
2020-01-21 17:00:00 2.6 6 Oeste 13 Sudoeste 0 -- -- 97
2020-01-21 16:00:00 2.8 6 Oeste 9 Sudoeste 0 -- -- 97
2020-01-21 15:00:00 2.2 5 Sudoeste 13 Sudoeste 0 -- -- 97
2020-01-21 14:00:00 1.4 7 Oeste 18 Oeste 0 -- -- 96
2020-01-21 13:00:00 1.3 9 Sudoeste 17 Sudoeste 0 -- -- 96
2020-01-21 12:00:00 1.2 5 Oeste 12 Oeste 0 -- -- 96
2020-01-21 11:00:00 0.7 8 Oeste 20 Oeste 0 -- -- 94
2020-01-21 10:00:00 0.5 6 Oeste 24 Oeste 0.4 -- -- 93
2020-01-21 09:00:00 0.2 11 Oeste 19 Oeste 0 -- -- 93
2020-01-21 08:00:00 0.4 9 Oeste 19 Oeste 0 -- -- 90
2020-01-21 07:00:00 0.4 9 Oeste 15 Oeste 0 -- -- 89
2020-01-21 06:00:00 0.7 8 Oeste 20 Oeste 0 -- -- 84
2020-01-21 05:00:00 0.6 11 Oeste 19 Oeste 0 -- -- 83
2020-01-21 04:00:00 0.4 14 Oeste 22 Oeste 0 -- -- 84
2020-01-21 03:00:00 0.3 12 Oeste 24 Oeste 0 -- -- 83
2020-01-21 02:00:00 0.2 12 Oeste 22 Oeste 0 -- -- 83
2020-01-21 01:00:00 0.3 15 Oeste 22 Oeste 0 -- -- 81
2020-01-21 00:00:00 0.3 14 Oeste 22 Oeste 0 -- -- 81
2020-01-20 23:00:00 -0.2 12 Oeste 20 Oeste 0 -- -- 85
2020-01-20 22:00:00 -0.4 11 Oeste 19 Oeste 0 -- -- 86
2020-01-20 21:00:00 -0.1 11 Oeste 20 Oeste 0 -- -- 84
2020-01-20 20:00:00 1 14 Oeste 23 Oeste 0 -- -- 78
2020-01-20 19:00:00 1.3 17 Oeste 24 Oeste 0 -- -- 77
2020-01-20 18:00:00 1.8 15 Oeste 30 Oeste 0 -- -- 75
2020-01-20 17:00:00 2.4 19 Oeste 31 Oeste 0 -- -- 72
2020-01-20 16:00:00 3.5 21 Oeste 35 Oeste 0 -- -- 68
2020-01-20 15:00:00 3.6 21 Oeste 32 Oeste 0 -- -- 65
2020-01-20 14:00:00 3.1 19 Oeste 31 Oeste 0 -- -- 66
2020-01-20 13:00:00 2.2 19 Oeste 32 Oeste 0 -- -- 70
2020-01-20 12:00:00 0.6 19 Oeste 30 Oeste 0 -- -- 74
2020-01-20 11:00:00 -0.1 18 Oeste 27 Oeste 0 -- -- 75
2020-01-20 10:00:00 -0.5 19 Oeste 30 Oeste 0 -- -- 77
2020-01-20 09:00:00 -0.9 17 Oeste 24 Oeste 0 -- -- 78
2020-01-20 08:00:00 -1.6 10 Oeste 18 Oeste 0 -- -- 83
2020-01-20 07:00:00 -2.1 11 Oeste 17 Oeste 0 -- -- 83
2020-01-20 06:00:00 -2.2 10 Oeste 16 Oeste 0 -- -- 82
2020-01-20 05:00:00 -1.9 10 Oeste 21 Oeste 0 -- -- 81
2020-01-20 04:00:00 -1.1 16 Oeste 24 Oeste 0 -- -- 77
2020-01-20 03:00:00 -0.9 15 Oeste 22 Oeste 0 -- -- 76
2020-01-20 02:00:00 -1 15 Oeste 21 Oeste 0 -- -- 77
2020-01-20 01:00:00 -0.8 12 Oeste 17 Oeste 0 -- -- 77
2020-01-20 00:00:00 -0.3 10 Oeste 16 Oeste 0 -- -- 75
2020-01-19 23:00:00 0.1 8 Oeste 13 Oeste 0 -- -- 72
2020-01-19 22:00:00 0.4 6 Noroeste 12 Oeste 0 -- -- 69
2020-01-19 21:00:00 1.3 7 Noroeste 17 Sudoeste 0 -- -- 64
2020-01-19 20:00:00 1.8 6 Oeste 33 Noroeste 0 -- -- 64
2020-01-19 19:00:00 3.6 14 Noroeste 37 Noroeste 0 -- -- 53
2020-01-19 18:00:00 4.8 22 Noroeste 48 Noroeste 0 -- -- 54
2020-01-19 17:00:00 6.3 31 Noroeste 49 Noroeste 0 -- -- 55
2020-01-19 16:00:00 7.2 27 Noroeste 48 Oeste 0 -- -- 59
2020-01-19 15:00:00 6.5 25 Noroeste 44 Noroeste 0 -- -- 63
2020-01-19 14:00:00 6.1 21 Noroeste 39 Noroeste 0 -- -- 67
2020-01-19 13:00:00 6.1 9 Oeste 17 Oeste 0 -- -- 78
2020-01-19 12:00:00 5.1 12 Oeste 19 Oeste 0 -- -- 93
2020-01-19 11:00:00 4.4 12 Oeste 17 Oeste 0 -- -- 98
2020-01-19 10:00:00 4.2 8 Oeste 15 Oeste 0 -- -- 98
2020-01-19 09:00:00 4 4 Oeste 7 Oeste 0 -- -- 97
2020-01-19 08:00:00 4 0 Calma 10 Oeste 0 -- -- 96
2020-01-19 07:00:00 3.9 2 Oeste 12 Noroeste 0 -- -- 96
2020-01-19 06:00:00 3.8 8 Noroeste 15 Oeste 0 -- -- 96
2020-01-19 05:00:00 3.8 9 Oeste 28 Oeste 0 -- -- 95
2020-01-19 04:00:00 3.8 13 Noroeste 27 Noroeste 0 -- -- 96
2020-01-19 03:00:00 4.2 11 Noroeste 21 Noroeste 0 -- -- 96
2020-01-19 02:00:00 4.4 5 Oeste 13 Noroeste 0 -- -- 95
2020-01-19 01:00:00 4.5 5 Oeste 11 Oeste 0 -- -- 96
2020-01-19 00:00:00 4.6 7 Oeste 27 Oeste 0 -- -- 96
2020-01-18 23:00:00 5.2 18 Este 38 Este 1.2 -- -- 93
2020-01-18 22:00:00 5.8 22 Este 37 Este 0.2 -- -- 86
2020-01-18 21:00:00 5.7 27 Este 38 Este 0 -- -- 86
2020-01-18 20:00:00 5.7 18 Este 32 Este 0 -- -- 86
2020-01-18 19:00:00 6.2 18 Este 24 Este 0.2 -- -- 82
2020-01-18 18:00:00 7.3 20 Este 30 Este 0 -- -- 73
2020-01-18 17:00:00 7.9 19 Este 30 Este 0 -- -- 74
2020-01-18 16:00:00 -- 19 Este 29 Este 0 -- -- --
2020-01-18 15:00:00 9.2 17 Este 32 Este 0 -- -- 68
2020-01-18 14:00:00 10.4 21 Este 31 Este 0 -- -- 64
2020-01-18 13:00:00 9.4 20 Este 37 Este 0 -- -- 64
2020-01-18 12:00:00 9.1 21 Este 31 Este 0 -- -- 66
2020-01-18 11:00:00 8.3 12 Este 22 Este 0 -- -- 67
2020-01-18 10:00:00 4.9 9 Nordeste 15 Este 0 -- -- 78
2020-01-18 09:00:00 4.1 13 Este 18 Este 0 -- -- 80
2020-01-18 08:00:00 2.8 14 Nordeste 18 Nordeste 0 -- -- 87
2020-01-18 07:00:00 3.3 9 Nordeste 10 Nordeste 0 -- -- 86
2020-01-18 06:00:00 2.6 4 Nordeste 6 Este 0 -- -- 87
2020-01-18 05:00:00 2.8 3 Este 8 Este 0 -- -- 86
2020-01-18 04:00:00 2.4 6 Nordeste 10 Nordeste 0 -- -- 88
2020-01-18 03:00:00 1.2 9 Nordeste 10 Nordeste 0 -- -- 91
2020-01-18 02:00:00 1.7 5 Este 9 Este 0 -- -- 90
2020-01-18 01:00:00 1.5 2 Nordeste 7 Este 0 -- -- 86
2020-01-18 00:00:00 2.2 3 Este 10 Noroeste 0 -- -- 86
2020-01-17 23:00:00 3.6 6 Oeste 14 Oeste 0 -- -- 83
2020-01-17 22:00:00 3.1 8 Oeste 15 Oeste 0 -- -- 85
2020-01-17 21:00:00 4.4 6 Oeste 13 Oeste 0 -- -- 81
2020-01-17 20:00:00 5.4 9 Oeste 15 Oeste 0 -- -- 74
2020-01-17 19:00:00 6.6 11 Oeste 23 Noroeste 0 -- -- 70
2020-01-17 18:00:00 7.8 9 Oeste 23 Noroeste 0 -- -- 64
2020-01-17 17:00:00 9.3 12 Noroeste 28 Noroeste 0 -- -- 63
2020-01-17 16:00:00 10.6 13 Noroeste 31 Noroeste 0 -- -- 61
2020-01-17 15:00:00 -- 15 Noroeste 31 Noroeste 0 -- -- --
2020-01-17 14:00:00 9.4 16 Noroeste 40 Noroeste 0.2 -- -- 75
2020-01-17 13:00:00 11.2 22 Oeste 33 Noroeste 0 -- -- 66
2020-01-17 12:00:00 9.9 19 Oeste 30 Oeste 0 -- -- 72
2020-01-17 11:00:00 9.6 14 Oeste 19 Oeste 0 -- -- 73
2020-01-17 10:00:00 7.5 3 Nordeste 7 Este 0 -- -- 78
2020-01-17 09:00:00 5.4 3 Este 11 Este 0 -- -- 86
2020-01-17 08:00:00 6.4 6 Nordeste 14 Norte 0 -- -- 79
2020-01-17 07:00:00 7.2 6 Nordeste 12 Este 0 -- -- 78
2020-01-17 06:00:00 7.5 8 Nordeste 15 Nordeste 0 -- -- 79
2020-01-17 05:00:00 7.9 9 Nordeste 15 Este 0 -- -- 79
2020-01-17 04:00:00 8.2 9 Nordeste 13 Nordeste 0 -- -- 79
2020-01-17 03:00:00 8.6 9 Este 15 Este 0 -- -- 78
2020-01-17 02:00:00 8.8 12 Este 19 Este 0 -- -- 75
2020-01-17 01:00:00 8.4 15 Nordeste 20 Este 0 -- -- 78
2020-01-17 00:00:00 8.6 13 Este 19 Este 0 -- -- 78
2020-01-16 23:00:00 8.6 13 Este 25 Este 0 -- -- 79
2020-01-16 22:00:00 8.7 18 Este 33 Este 0 -- -- 78
2020-01-16 21:00:00 8.7 17 Este 30 Este 0 -- -- 79
2020-01-16 20:00:00 8.3 15 Este 25 Este 0 -- -- 79
2020-01-16 19:00:00 8.5 12 Este 21 Sudeste 0 -- -- 80
2020-01-16 18:00:00 10.4 12 Sudeste 30 Este 0 -- -- 74
2020-01-16 17:00:00 12.4 22 Este 32 Este 0 -- -- 66
2020-01-16 16:00:00 12.6 23 Este 31 Este 0 -- -- 65
2020-01-16 15:00:00 13.2 14 Este 25 Sudeste 0 -- -- 64
2020-01-16 14:00:00 13.5 14 Este 33 Este 0 -- -- 63
2020-01-16 13:00:00 12.1 22 Este 33 Este 0 -- -- 66
2020-01-16 12:00:00 10.8 25 Este 34 Este 0 -- -- 70
2020-01-16 11:00:00 9.8 19 Este 27 Este 0 -- -- 75
2020-01-16 10:00:00 7.2 15 Este 30 Este 0 -- -- 83
2020-01-16 09:00:00 5.3 15 Este 26 Este 0 -- -- 88
2020-01-16 08:00:00 5 14 Este 20 Este 0 -- -- 88
2020-01-16 07:00:00 5 13 Este 19 Este 0 -- -- 87
2020-01-16 06:00:00 5.2 15 Este 19 Este 0 -- -- 87
2020-01-16 05:00:00 6.8 11 Nordeste 16 Nordeste 0 -- -- 85
2020-01-16 04:00:00 7.5 2 Norte 13 Nordeste 0 -- -- 82
2020-01-16 03:00:00 6.7 9 Nordeste 13 Nordeste 0 -- -- 81
2020-01-16 02:00:00 6.8 9 Nordeste 15 Nordeste 0 -- -- 81
2020-01-16 01:00:00 6.5 13 Nordeste 17 Nordeste 0 -- -- 80
2020-01-16 00:00:00 5.4 13 Nordeste 17 Nordeste 0 -- -- 84
2020-01-15 23:00:00 6.2 10 Nordeste 14 Nordeste 0 -- -- 80
2020-01-15 22:00:00 6.5 10 Nordeste 15 Nordeste 0 -- -- 78
2020-01-15 21:00:00 6.4 9 Nordeste 13 Nordeste 0 -- -- 77
2020-01-15 20:00:00 7.2 5 Nordeste 14 Nordeste 0 -- -- 76
2020-01-15 19:00:00 8.3 10 Nordeste 12 Nordeste 0 -- -- 73
2020-01-15 18:00:00 10.4 5 Nordeste 8 Este 0 -- -- 66
2020-01-15 17:00:00 11.1 5 Noroeste 18 Oeste 0 -- -- 65
2020-01-15 16:00:00 12.7 11 Oeste 24 Oeste 0 -- -- 61
2020-01-15 15:00:00 12.5 14 Oeste 28 Oeste 0 -- -- 59
2020-01-15 14:00:00 11.1 6 Sudoeste 18 Oeste 0 -- -- 61
2020-01-15 13:00:00 10.2 5 Oeste 15 Oeste 0 -- -- 63
2020-01-15 12:00:00 10.8 6 Sur 15 Este 0 -- -- 59
2020-01-15 11:00:00 9.7 9 Sudeste 18 Este 0 -- -- 62
2020-01-15 10:00:00 5.9 13 Este 19 Este 0 -- -- 69
2020-01-15 09:00:00 3.4 13 Este 22 Este 0 -- -- 73
2020-01-15 08:00:00 3.5 14 Este 21 Este 0 -- -- 73
2020-01-15 07:00:00 4 12 Nordeste 20 Este 0 -- -- 76
2020-01-15 06:00:00 3.7 11 Este 18 Este 0 -- -- 76
2020-01-15 05:00:00 3.7 11 Nordeste 20 Este 0 -- -- 76
2020-01-15 04:00:00 3.6 12 Nordeste 17 Nordeste 0 -- -- 75
2020-01-15 03:00:00 3.6 13 Este 18 Este 0 -- -- 75
2020-01-15 02:00:00 3.9 8 Nordeste 20 Nordeste 0 -- -- 75
2020-01-15 01:00:00 3.5 10 Nordeste 21 Sudeste 0 -- -- 76
2020-01-15 00:00:00 3.8 13 Este 20 Este 0 -- -- 73
2020-01-14 23:00:00 2.9 15 Este 22 Este 0 -- -- 75
2020-01-14 22:00:00 3 17 Este 23 Este 0 -- -- 74
2020-01-14 21:00:00 3.1 12 Este 22 Este 0 -- -- 73
2020-01-14 20:00:00 3.8 14 Este 20 Este 0 -- -- 68
2020-01-14 19:00:00 4.2 16 Este 21 Este 0 -- -- 69
2020-01-14 18:00:00 5.7 14 Este 24 Este 0 -- -- 67
2020-01-14 17:00:00 9.6 8 Sur 13 Sur 0 -- -- 55
2020-01-14 16:00:00 10.3 4 Oeste 12 Oeste 0 -- -- 55
2020-01-14 15:00:00 9.3 5 Sudoeste 14 Sudeste 0 -- -- 68
2020-01-14 14:00:00 9.1 2 Sur 21 Oeste 0 -- -- 58
2020-01-14 13:00:00 8.7 8 Sudoeste 16 Oeste 0 -- -- 64
2020-01-14 12:00:00 6.2 4 Oeste 11 Oeste 0 -- -- 69
2020-01-14 11:00:00 5.9 5 Oeste 12 Este 0 -- -- 72
2020-01-14 10:00:00 3.8 8 Este 15 Nordeste 0 -- -- 72
2020-01-14 09:00:00 0.6 13 Nordeste 15 Nordeste 0 -- -- 83
2020-01-14 08:00:00 -3 11 Nordeste 15 Nordeste 0 -- -- 90
2020-01-14 07:00:00 -2.6 10 Oeste 16 Sudoeste 0 -- -- 81
2020-01-14 06:00:00 -0.1 9 Nordeste 14 Nordeste 0 -- -- 81
2020-01-14 05:00:00 1.6 10 Nordeste 16 Nordeste 0 -- -- 75
2020-01-14 04:00:00 2 10 Nordeste 19 Nordeste 0 -- -- 74
2020-01-14 03:00:00 0.8 11 Nordeste 18 Nordeste 0 -- -- 79
2020-01-14 02:00:00 1.5 9 Nordeste 15 Nordeste 0 -- -- 76
2020-01-14 01:00:00 1 13 Nordeste 17 Nordeste 0 -- -- 76
2020-01-14 00:00:00 1.6 13 Nordeste 19 Este 0 -- -- 77
2020-01-13 23:00:00 -2.8 4 Noroeste 22 Este 0 -- -- 89
2020-01-13 22:00:00 2.2 15 Este 20 Este 0 -- -- 76
2020-01-13 21:00:00 2.4 17 Este 21 Este 0 -- -- 69
2020-01-13 20:00:00 3 12 Este 18 Este 0 -- -- 72
2020-01-13 19:00:00 3.1 14 Nordeste 20 Nordeste 0 -- -- 78
2020-01-13 18:00:00 4.6 10 Nordeste 17 Este 0 -- -- 80
2020-01-13 17:00:00 3.7 4 Este 10 Oeste 0 -- -- 88
2020-01-13 16:00:00 3.8 10 Oeste 15 Oeste 0 -- -- 88
2020-01-13 15:00:00 4.6 3 Este 16 Oeste 0 -- -- 82
2020-01-13 14:00:00 3.7 11 Oeste 16 Oeste 0 -- -- 84
2020-01-13 13:00:00 3.4 5 Oeste 11 Oeste 0 -- -- 83
2020-01-13 12:00:00 0.4 10 Oeste 16 Oeste 0 -- -- 92
2020-01-13 11:00:00 1.7 5 Oeste 8 Oeste 0 -- -- 90
2020-01-13 10:00:00 1.3 6 Noroeste 14 Nordeste 0 -- -- 88
2020-01-13 09:00:00 -0.6 8 Nordeste 13 Nordeste 0 -- -- 90
2020-01-13 08:00:00 -0.4 10 Nordeste 13 Nordeste 0 -- -- 90
2020-01-13 07:00:00 0.7 8 Nordeste 13 Nordeste 0 -- -- 87
2020-01-13 06:00:00 0.7 8 Nordeste 13 Nordeste 0 -- -- 89
2020-01-13 05:00:00 0.4 11 Nordeste 14 Nordeste 0 -- -- 85
2020-01-13 04:00:00 0.9 10 Nordeste 14 Nordeste 0 -- -- 86
2020-01-13 03:00:00 0.5 12 Nordeste 14 Nordeste 0 -- -- 83
2020-01-13 02:00:00 0.5 12 Nordeste 13 Nordeste 0 -- -- 83
2020-01-13 01:00:00 1.9 10 Nordeste 16 Este 0 -- -- 78
2020-01-13 00:00:00 1.5 12 Nordeste 15 Nordeste 0 -- -- 83
2020-01-12 23:00:00 2.3 10 Nordeste 14 Nordeste 0 -- -- 79
2020-01-12 22:00:00 2.2 10 Nordeste 13 Nordeste 0 -- -- 81
2020-01-12 21:00:00 2.9 9 Nordeste 17 Nordeste 0 -- -- 76
2020-01-12 20:00:00 3.2 13 Nordeste 19 Nordeste 0 -- -- 75
2020-01-12 19:00:00 3.6 12 Nordeste 18 Nordeste 0 -- -- 74
2020-01-12 18:00:00 5.7 6 Norte 13 Oeste 0 -- -- 67
2020-01-12 17:00:00 -- -- -- -- -- -- -- -- --
2020-01-12 16:00:00 8.2 11 Oeste 15 Oeste 0 -- -- 59
2020-01-12 15:00:00 7.6 9 Sudoeste 17 Sudoeste 0 -- -- 64
2020-01-12 14:00:00 -- 13 Oeste 17 Oeste 0 -- -- --
2020-01-12 13:00:00 4.8 13 Oeste 17 Oeste 0 -- -- 81
2020-01-12 12:00:00 3.4 14 Oeste 18 Oeste 0 -- -- 82
2020-01-12 11:00:00 2.5 8 Oeste 12 Oeste 0 -- -- 88
2020-01-12 10:00:00 1.4 6 Oeste 8 Oeste 0 -- -- 90
2020-01-12 09:00:00 -0.3 0 Calma 8 Oeste 0 -- -- 93
2020-01-12 08:00:00 0.1 6 Oeste 9 Oeste 0 -- -- 94
2020-01-12 07:00:00 0.3 7 Oeste 9 Oeste 0 -- -- 94
2020-01-12 06:00:00 0.3 8 Oeste 11 Oeste 0 -- -- 93
2020-01-12 05:00:00 1.5 3 Oeste 9 Oeste 0 -- -- 88
2020-01-12 04:00:00 2.4 5 Oeste 11 Oeste 0 -- -- 86
2020-01-12 03:00:00 2.4 7 Oeste 10 Oeste 0 -- -- 87
2020-01-12 02:00:00 3 3 Este 15 Noroeste 0 -- -- 83
2020-01-12 01:00:00 2.2 0 Calma 8 Nordeste 0 -- -- 87
2020-01-12 00:00:00 2.5 0 Calma 8 Este 0 -- -- 86
2020-01-11 23:00:00 2.5 0 Calma 5 Oeste 0 -- -- 85
2020-01-11 22:00:00 3.1 0 Calma 4 Noroeste 0 -- -- 83
2020-01-11 21:00:00 3.1 0 Calma 5 Este 0 -- -- 84
2020-01-11 20:00:00 3.1 2 Nordeste 9 Nordeste 0 -- -- 83
2020-01-11 19:00:00 4.8 3 Nordeste 10 Noroeste 0 -- -- 78
2020-01-11 18:00:00 7.3 7 Oeste 21 Oeste 0 -- -- 68
2020-01-11 17:00:00 8.9 13 Oeste 24 Noroeste 0 -- -- 63
2020-01-11 16:00:00 9.3 17 Oeste 28 Oeste 0 -- -- 63
2020-01-11 15:00:00 8.8 20 Oeste 30 Oeste 0 -- -- 63
2020-01-11 14:00:00 8 22 Oeste 35 Oeste 0 -- -- 68
2020-01-11 13:00:00 7.4 21 Oeste 29 Oeste 0 -- -- 71
2020-01-11 12:00:00 5.9 17 Oeste 24 Oeste 0 -- -- 79
2020-01-11 11:00:00 4.2 15 Oeste 22 Oeste 0 -- -- 85
2020-01-11 10:00:00 2.5 12 Oeste 22 Oeste 0 -- -- 90
2020-01-11 09:00:00 1.8 9 Oeste 15 Oeste 0 -- -- 89
2020-01-11 08:00:00 1.6 6 Oeste 12 Oeste 0 -- -- 89
2020-01-11 07:00:00 1.7 3 Noroeste 7 Noroeste 0 -- -- 89
2020-01-11 06:00:00 1.8 6 Oeste 14 Oeste 0 -- -- 88
2020-01-11 05:00:00 1.4 10 Oeste 15 Oeste 0 -- -- 90
2020-01-11 04:00:00 1.9 10 Oeste 14 Oeste 0 -- -- 90
2020-01-11 03:00:00 2 11 Oeste 15 Oeste 0 -- -- 90
2020-01-11 02:00:00 2.5 11 Oeste 15 Oeste 0 -- -- 89
2020-01-11 01:00:00 2.7 12 Oeste 17 Oeste 0 -- -- 91
2020-01-11 00:00:00 2.7 10 Oeste 20 Oeste 0 -- -- 94
2020-01-10 23:00:00 2.7 12 Oeste 21 Oeste 0 -- -- 94
2020-01-10 22:00:00 3.2 12 Oeste 19 Oeste 0 -- -- 92
2020-01-10 21:00:00 3.9 11 Oeste 19 Oeste 0 -- -- 90
2020-01-10 20:00:00 5.2 11 Oeste 31 Oeste 0 -- -- 83
2020-01-10 19:00:00 6.4 17 Oeste 30 Noroeste 0 -- -- 79
2020-01-10 18:00:00 7.2 19 Noroeste 45 Noroeste 0 -- -- 75
2020-01-10 17:00:00 8.7 24 Noroeste 40 Noroeste 0 -- -- 73
2020-01-10 16:00:00 9 26 Noroeste 44 Oeste 0 -- -- 76
2020-01-10 15:00:00 8.9 23 Oeste 46 Oeste 0 -- -- 77
2020-01-10 14:00:00 8.5 25 Oeste 52 Oeste 0 -- -- 77
2020-01-10 13:00:00 8 24 Oeste 42 Oeste 0 -- -- 81
2020-01-10 12:00:00 7.3 22 Oeste 42 Oeste 0 -- -- 79
2020-01-10 11:00:00 6.4 19 Noroeste 40 Oeste 0 -- -- 83
2020-01-10 10:00:00 5.5 16 Noroeste 33 Noroeste 0 -- -- 83
2020-01-10 09:00:00 4.9 21 Noroeste 44 Noroeste 0 -- -- 82
2020-01-10 08:00:00 5 24 Noroeste 36 Noroeste 0 -- -- 83
2020-01-10 07:00:00 4.2 9 Oeste 30 Noroeste 0 -- -- 88
2020-01-10 06:00:00 5 16 Noroeste 33 Oeste 0 -- -- 89
2020-01-10 05:00:00 4.2 15 Oeste 28 Noroeste 0 -- -- 97
2020-01-10 04:00:00 4.9 16 Noroeste 32 Noroeste 0 -- -- 98
2020-01-10 03:00:00 3.8 14 Oeste 27 Oeste 0 -- -- 100
2020-01-10 02:00:00 2.4 10 Oeste 20 Oeste 0 -- -- 99
2020-01-10 01:00:00 2.2 11 Oeste 18 Oeste 0 -- -- 100
2020-01-10 00:00:00 2.4 9 Oeste 19 Oeste 0 -- -- 99
2020-01-09 23:00:00 2.1 15 Oeste 19 Oeste 0 -- -- 99
2020-01-09 22:00:00 1.7 12 Este 14 Este 0 -- -- 99
2020-01-09 21:00:00 1.7 3 Sudoeste 17 Oeste 0 -- -- 99
2020-01-09 20:00:00 1.9 12 Oeste 23 Oeste 0 -- -- 99
2020-01-09 19:00:00 2.4 4 Nordeste 18 Este 0 -- -- 97
2020-01-09 18:00:00 4.9 16 Este 20 Este 0 -- -- 98
2020-01-09 17:00:00 4.1 10 Nordeste 19 Oeste 0 -- -- 100
2020-01-09 16:00:00 5.3 17 Oeste 28 Sudoeste 0 -- -- 90
2020-01-09 15:00:00 4.5 7 Este 32 Sudoeste 0 -- -- 99
2020-01-09 14:00:00 7.8 19 Este 25 Este 0 -- -- 100
2020-01-09 13:00:00 2.9 3 Oeste 14 Oeste 0 -- -- 100
2020-01-09 12:00:00 2.1 6 Oeste 21 Oeste 0 -- -- 100
2020-01-09 11:00:00 5 6 Sudeste 33 Este 0 -- -- 100
2020-01-09 10:00:00 0.9 5 Este 9 Oeste 0 -- -- 100
2020-01-09 09:00:00 0.2 9 Oeste 11 Oeste 0 -- -- 99
2020-01-09 08:00:00 0 3 Oeste 22 Este 0 -- -- 99
2020-01-09 07:00:00 2.3 18 Este 24 Este 0 -- -- 100
2020-01-09 06:00:00 -0.6 6 Oeste 14 Nordeste 0 -- -- 99
2020-01-09 05:00:00 1.3 12 Nordeste 15 Nordeste 0 -- -- 100
2020-01-09 04:00:00 -0.2 3 Nordeste 13 Oeste 0 -- -- 99
2020-01-09 03:00:00 -0.4 11 Oeste 14 Oeste 0 -- -- 97
2020-01-09 02:00:00 1.3 10 Nordeste 13 Oeste 0 -- -- 100
2020-01-09 01:00:00 3.2 6 Noroeste 15 Este 0 -- -- 87
2020-01-09 00:00:00 2.1 8 Nordeste 10 Nordeste 0 -- -- 99
2020-01-08 23:00:00 3.2 7 Este 18 Este 0 -- -- 94
2020-01-08 22:00:00 2.9 10 Este 17 Este 0 -- -- 96
2020-01-08 21:00:00 2.6 11 Este 15 Este 0 -- -- 97
2020-01-08 20:00:00 3.2 8 Este 13 Este 0 -- -- 97
2020-01-08 19:00:00 3.7 4 Sudeste 22 Este 0 -- -- 96
2020-01-08 18:00:00 3.9 14 Este 18 Este 0 -- -- 97
2020-01-08 17:00:00 4 4 Oeste 9 Oeste 0 -- -- 95
2020-01-08 16:00:00 5.3 7 Oeste 22 Sudeste 0 -- -- 90
2020-01-08 15:00:00 8.7 17 Este 24 Este 0 -- -- 69
2020-01-08 14:00:00 6.4 5 Oeste 13 Este 0 -- -- 95
2020-01-08 13:00:00 4.9 3 Oeste 10 Oeste 0 -- -- 100
2020-01-08 12:00:00 2.6 8 Oeste 13 Oeste 0 -- -- 98
2020-01-08 11:00:00 4.4 5 Oeste 10 Nordeste 0 -- -- 94
2020-01-08 10:00:00 3 9 Nordeste 14 Este 0 -- -- 99
2020-01-08 09:00:00 -0.2 4 Nordeste 8 Oeste 0 -- -- 97
2020-01-08 08:00:00 2.3 7 Noroeste 10 Este 0 -- -- 93
2020-01-08 07:00:00 3.7 7 Este 9 Este 0 -- -- 98
2020-01-08 06:00:00 3.6 6 Este 7 Este 0 -- -- 98
2020-01-08 05:00:00 3.5 3 Este 6 Este 0 -- -- 97
2020-01-08 04:00:00 3.7 3 Este 5 Este 0 -- -- 98
2020-01-08 03:00:00 3.3 4 Sudeste 6 Este 0 -- -- 98
2020-01-08 02:00:00 3 4 Noroeste 6 Oeste 0 -- -- 97
2020-01-08 01:00:00 1.9 0 Calma 8 Oeste 0 -- -- 96
2020-01-08 00:00:00 3 0 Calma 8 Este 0 -- -- 95
2020-01-07 23:00:00 3.2 5 Este 6 Este 0 -- -- 95
2020-01-07 22:00:00 3.5 0 Calma 12 Noroeste 0 -- -- 92
2020-01-07 21:00:00 4.8 2 Sudoeste 7 Sudoeste 0 -- -- 91
2020-01-07 20:00:00 4.5 4 Este 6 Este 0 -- -- 90
2020-01-07 19:00:00 4.4 0 Calma 6 Oeste 0 -- -- 90
2020-01-07 18:00:00 4.8 6 Oeste 14 Oeste 0 -- -- 89
2020-01-07 17:00:00 -- -- -- -- -- -- -- -- --
2020-01-07 16:00:00 5.1 9 Oeste 14 Oeste 0 -- -- 100
2020-01-07 15:00:00 4.1 8 Oeste 13 Oeste 0 -- -- 100
2020-01-07 14:00:00 2.4 6 Oeste 12 Oeste 0 -- -- 100
2020-01-07 13:00:00 1.3 5 Oeste 11 Sudoeste 0 -- -- 100
2020-01-07 12:00:00 0.8 5 Oeste 9 Oeste 0 -- -- 100
2020-01-07 11:00:00 -0.1 2 Sur 6 Nordeste 0.2 -- -- 100
2020-01-07 10:00:00 -1.1 5 Nordeste 6 Este 0 -- -- 100
2020-01-07 09:00:00 -1.4 0 Calma 6 Nordeste 0 -- -- 100
2020-01-07 08:00:00 -1.4 5 Nordeste 9 Nordeste 0 -- -- 100
2020-01-07 07:00:00 -0.7 2 Norte 5 Norte 0 -- -- 99
2020-01-07 06:00:00 -0.6 0 Calma 11 Nordeste 0 -- -- 100
2020-01-07 05:00:00 -0.5 8 Nordeste 10 Nordeste 0 -- -- 100
2020-01-07 04:00:00 0 4 Este 10 Este 0 -- -- 100
2020-01-07 03:00:00 0.7 5 Noroeste 7 Noroeste 0 -- -- 100
2020-01-07 02:00:00 -0.1 6 Este 8 Este 0 -- -- 100
2020-01-07 01:00:00 0.2 0 Calma 6 Oeste 0 -- -- 100
2020-01-07 00:00:00 0.3 3 Oeste 8 Oeste 0 -- -- 100
2020-01-06 23:00:00 0.1 6 Oeste 13 Oeste 0 -- -- 100
2020-01-06 22:00:00 0.2 11 Oeste 15 Oeste 0 -- -- 100
2020-01-06 21:00:00 0.4 10 Oeste 14 Oeste 0 -- -- 99
2020-01-06 20:00:00 0.6 7 Oeste 11 Oeste 0 -- -- 99
2020-01-06 19:00:00 0.6 5 Oeste 12 Oeste 0 -- -- 99
2020-01-06 18:00:00 0.8 4 Nordeste 7 Este 0 -- -- 99
2020-01-06 17:00:00 1.2 3 Sudoeste 14 Oeste 0 -- -- 99
2020-01-06 16:00:00 1.5 10 Oeste 15 Oeste 0 -- -- 99
2020-01-06 15:00:00 1.6 3 Oeste 12 Oeste 0 -- -- 99
2020-01-06 14:00:00 1.1 8 Oeste 15 Oeste 0 -- -- 99
2020-01-06 13:00:00 0.6 11 Oeste 14 Oeste 0 -- -- 99
2020-01-06 12:00:00 -0.1 4 Sudoeste 11 Oeste 0 -- -- 99
2020-01-06 11:00:00 -0.7 2 Sudoeste 8 Oeste 0 -- -- 98
2020-01-06 10:00:00 -1.6 6 Oeste 9 Oeste 0 -- -- 98